RYR87NQ EHEH-LDZD
Flight info
| Callsign | RYR87NQ |
|---|---|
| Flight time | 1h 33m |
| Altitude | 37000 |
| Route | LNO Z283 RITAX M624 DIK M150 KRH DCT UTABA DCT BEMKI DCT ELMEM DCT DIRAB DCT VESAL DCT UPIRO DCT PEVAL DCT PUL DCT LOS |
| Aircraft | B738/M-SDE3FGILRWY/SB1 |
Departure
| Time | 2026-04-22 17:59 |
|---|---|
| Airport | Eindhoven Airport (EHEH) |
Arrival
| Time | 2026-04-22 19:32 |
|---|---|
| Airport | Zadar Airport (LDZD) |
| Time | Latitude | Longitude | Altitude | Speed | Heading |
|---|---|---|---|---|---|
| 2026-04-22 17:28 | 51.45789 | 5.38973 | 74 ft | 0 kts | 125° |
| 2026-04-22 17:48 | 51.45791 | 5.38968 | 74 ft | 3 kts | 125° |
| 2026-04-22 17:48 | 51.45806 | 5.38933 | 65 ft | 4 kts | 125° |
| 2026-04-22 17:48 | 51.45818 | 5.38907 | 63 ft | 4 kts | 143° |
| 2026-04-22 17:48 | 51.45841 | 5.38896 | 64 ft | 4 kts | 195° |
| 2026-04-22 17:49 | 51.45857 | 5.38907 | 66 ft | 0 kts | 215° |
| 2026-04-22 17:51 | 51.45852 | 5.38901 | 66 ft | 3 kts | 215° |
| 2026-04-22 17:51 | 51.45815 | 5.38860 | 68 ft | 9 kts | 214° |
| 2026-04-22 17:52 | 51.45796 | 5.38774 | 74 ft | 8 kts | 294° |
| 2026-04-22 17:52 | 51.45824 | 5.38705 | 74 ft | 7 kts | 303° |
| 2026-04-22 17:52 | 51.45860 | 5.38621 | 74 ft | 11 kts | 306° |
| 2026-04-22 17:52 | 51.45913 | 5.38502 | 68 ft | 13 kts | 300° |
| 2026-04-22 17:53 | 51.45969 | 5.38380 | 67 ft | 14 kts | 307° |
| 2026-04-22 17:53 | 51.45987 | 5.38268 | 70 ft | 11 kts | 233° |
| 2026-04-22 17:53 | 51.45924 | 5.38193 | 72 ft | 12 kts | 214° |
| 2026-04-22 17:53 | 51.45842 | 5.38102 | 72 ft | 16 kts | 214° |
| 2026-04-22 17:54 | 51.45740 | 5.37985 | 73 ft | 20 kts | 214° |
| 2026-04-22 17:54 | 51.45617 | 5.37849 | 68 ft | 23 kts | 215° |
| 2026-04-22 17:54 | 51.45487 | 5.37704 | 69 ft | 23 kts | 215° |
| 2026-04-22 17:54 | 51.45357 | 5.37558 | 71 ft | 22 kts | 215° |
| 2026-04-22 17:55 | 51.45274 | 5.37465 | 72 ft | 22 kts | 214° |
| 2026-04-22 17:55 | 51.45112 | 5.37283 | 74 ft | 21 kts | 214° |
| 2026-04-22 17:55 | 51.44993 | 5.37150 | 74 ft | 21 kts | 214° |
| 2026-04-22 17:55 | 51.44877 | 5.37022 | 70 ft | 20 kts | 215° |
| 2026-04-22 17:56 | 51.44756 | 5.36884 | 67 ft | 23 kts | 213° |
| 2026-04-22 17:56 | 51.44618 | 5.36730 | 74 ft | 24 kts | 216° |
| 2026-04-22 17:56 | 51.44486 | 5.36581 | 66 ft | 23 kts | 215° |
| 2026-04-22 17:56 | 51.44358 | 5.36437 | 70 ft | 22 kts | 215° |
| 2026-04-22 17:57 | 51.44237 | 5.36303 | 74 ft | 21 kts | 215° |
| 2026-04-22 17:57 | 51.44121 | 5.36173 | 72 ft | 20 kts | 215° |
| 2026-04-22 17:57 | 51.44020 | 5.36071 | 66 ft | 14 kts | 194° |
| 2026-04-22 17:57 | 51.43951 | 5.36155 | 69 ft | 13 kts | 124° |
| 2026-04-22 17:58 | 51.43950 | 5.36257 | 67 ft | 6 kts | 46° |
| 2026-04-22 17:58 | 51.43974 | 5.36285 | 69 ft | 13 kts | 36° |
| 2026-04-22 17:58 | 51.44262 | 5.36608 | 68 ft | 87 kts | 36° |
| 2026-04-22 17:58 | 51.44942 | 5.37370 | 81 ft | 148 kts | 36° |
| 2026-04-22 17:59 | 51.45844 | 5.38408 | 595 ft | 162 kts | 37° |
| 2026-04-22 17:59 | 51.46742 | 5.39402 | 1604 ft | 152 kts | 38° |
| 2026-04-22 17:59 | 51.47632 | 5.40396 | 2345 ft | 166 kts | 38° |
| 2026-04-22 17:59 | 51.48677 | 5.41576 | 2666 ft | 198 kts | 38° |
| 2026-04-22 18:00 | 51.49442 | 5.42442 | 2965 ft | 208 kts | 38° |
| 2026-04-22 18:00 | 51.50966 | 5.44408 | 3734 ft | 217 kts | 57° |
| 2026-04-22 18:00 | 51.51489 | 5.46662 | 4486 ft | 220 kts | 86° |
| 2026-04-22 18:00 | 51.51290 | 5.49087 | 5364 ft | 220 kts | 105° |
| 2026-04-22 18:01 | 51.50807 | 5.51439 | 6170 ft | 226 kts | 108° |
| 2026-04-22 18:01 | 51.50280 | 5.53849 | 6997 ft | 227 kts | 108° |
| 2026-04-22 18:01 | 51.49754 | 5.56269 | 7764 ft | 234 kts | 108° |
| 2026-04-22 18:01 | 51.49260 | 5.58783 | 8481 ft | 242 kts | 103° |
| 2026-04-22 18:02 | 51.48869 | 5.61557 | 8815 ft | 265 kts | 101° |
| 2026-04-22 18:02 | 51.48394 | 5.64456 | 9523 ft | 275 kts | 114° |
| 2026-04-22 18:02 | 51.47160 | 5.66840 | 10356 ft | 283 kts | 141° |
| 2026-04-22 18:02 | 51.45369 | 5.68306 | 10897 ft | 303 kts | 161° |
| 2026-04-22 18:03 | 51.43225 | 5.69102 | 11103 ft | 329 kts | 167° |
| 2026-04-22 18:03 | 51.40919 | 5.69754 | 11625 ft | 341 kts | 168° |
| 2026-04-22 18:03 | 51.38555 | 5.70373 | 12367 ft | 347 kts | 168° |
| 2026-04-22 18:03 | 51.36165 | 5.70999 | 13140 ft | 351 kts | 168° |
| 2026-04-22 18:04 | 51.33741 | 5.71649 | 13888 ft | 356 kts | 167° |
| 2026-04-22 18:04 | 51.31284 | 5.72325 | 14575 ft | 361 kts | 167° |
| 2026-04-22 18:04 | 51.28798 | 5.73020 | 15261 ft | 365 kts | 167° |
| 2026-04-22 18:04 | 51.26279 | 5.73738 | 15938 ft | 369 kts | 166° |
| 2026-04-22 18:05 | 51.23736 | 5.74470 | 16602 ft | 374 kts | 166° |
| 2026-04-22 18:05 | 51.21163 | 5.75211 | 17275 ft | 378 kts | 166° |
| 2026-04-22 18:05 | 51.18559 | 5.75962 | 17929 ft | 383 kts | 166° |
| 2026-04-22 18:05 | 51.15914 | 5.76723 | 18580 ft | 388 kts | 166° |
| 2026-04-22 18:06 | 51.13242 | 5.77491 | 19158 ft | 392 kts | 166° |
| 2026-04-22 18:06 | 51.10556 | 5.78261 | 19765 ft | 395 kts | 166° |
| 2026-04-22 18:06 | 51.07838 | 5.79040 | 20369 ft | 398 kts | 166° |
| 2026-04-22 18:06 | 51.05104 | 5.79822 | 20952 ft | 401 kts | 166° |
| 2026-04-22 18:07 | 51.03277 | 5.80344 | 21335 ft | 404 kts | 166° |
| 2026-04-22 18:07 | 50.99560 | 5.81405 | 22112 ft | 408 kts | 167° |
| 2026-04-22 18:07 | 50.96754 | 5.82205 | 22681 ft | 411 kts | 167° |
| 2026-04-22 18:07 | 50.93895 | 5.83019 | 23232 ft | 415 kts | 167° |
| 2026-04-22 18:08 | 50.91069 | 5.83823 | 23773 ft | 418 kts | 167° |
| 2026-04-22 18:08 | 50.88198 | 5.84639 | 24242 ft | 421 kts | 167° |
| 2026-04-22 18:08 | 50.85297 | 5.85462 | 24689 ft | 424 kts | 167° |
| 2026-04-22 18:08 | 50.82379 | 5.86288 | 25125 ft | 427 kts | 167° |
| 2026-04-22 18:09 | 50.79440 | 5.87137 | 25563 ft | 429 kts | 165° |
| 2026-04-22 18:09 | 50.76626 | 5.88639 | 26017 ft | 427 kts | 150° |
| 2026-04-22 18:09 | 50.74126 | 5.91102 | 26493 ft | 423 kts | 139° |
| 2026-04-22 18:09 | 50.71976 | 5.94249 | 26902 ft | 423 kts | 131° |
| 2026-04-22 18:10 | 50.69921 | 5.97601 | 27272 ft | 426 kts | 130° |
| 2026-04-22 18:10 | 50.67859 | 6.00992 | 27641 ft | 430 kts | 130° |
| 2026-04-22 18:10 | 50.65806 | 6.04357 | 28013 ft | 433 kts | 130° |
| 2026-04-22 18:10 | 50.63708 | 6.07772 | 28407 ft | 436 kts | 131° |
| 2026-04-22 18:11 | 50.61584 | 6.11206 | 28768 ft | 439 kts | 131° |
| 2026-04-22 18:11 | 50.59446 | 6.14645 | 29126 ft | 442 kts | 131° |
| 2026-04-22 18:11 | 50.57287 | 6.18101 | 29478 ft | 445 kts | 131° |
| 2026-04-22 18:11 | 50.55104 | 6.21585 | 29828 ft | 447 kts | 131° |
| 2026-04-22 18:12 | 50.52915 | 6.25074 | 30157 ft | 450 kts | 131° |
| 2026-04-22 18:12 | 50.50704 | 6.28591 | 30450 ft | 453 kts | 131° |
| 2026-04-22 18:12 | 50.49202 | 6.30977 | 30631 ft | 455 kts | 131° |
| 2026-04-22 18:12 | 50.46240 | 6.35670 | 30986 ft | 458 kts | 132° |
| 2026-04-22 18:13 | 50.43956 | 6.39174 | 31250 ft | 461 kts | 133° |
| 2026-04-22 18:13 | 50.41627 | 6.42655 | 31516 ft | 463 kts | 134° |
| 2026-04-22 18:13 | 50.39283 | 6.46122 | 31868 ft | 463 kts | 134° |
| 2026-04-22 18:13 | 50.36945 | 6.49571 | 32267 ft | 461 kts | 134° |
| 2026-04-22 18:14 | 50.34616 | 6.53012 | 32624 ft | 461 kts | 134° |
| 2026-04-22 18:14 | 50.32283 | 6.56466 | 32934 ft | 462 kts | 134° |
| 2026-04-22 18:14 | 50.29950 | 6.59923 | 33258 ft | 462 kts | 134° |
| 2026-04-22 18:14 | 50.27622 | 6.63376 | 33621 ft | 461 kts | 134° |
| 2026-04-22 18:15 | 50.25302 | 6.66815 | 33983 ft | 460 kts | 134° |
| 2026-04-22 18:15 | 50.22984 | 6.70248 | 34291 ft | 460 kts | 134° |
| 2026-04-22 18:15 | 50.20653 | 6.73695 | 34544 ft | 460 kts | 134° |
| 2026-04-22 18:15 | 50.18327 | 6.77131 | 34803 ft | 460 kts | 134° |
| 2026-04-22 18:16 | 50.16000 | 6.80561 | 35070 ft | 460 kts | 134° |
| 2026-04-22 18:16 | 50.13680 | 6.83976 | 35328 ft | 460 kts | 134° |
| 2026-04-22 18:16 | 50.11357 | 6.87392 | 35574 ft | 460 kts | 134° |
| 2026-04-22 18:16 | 50.09026 | 6.90815 | 35826 ft | 459 kts | 134° |
| 2026-04-22 18:17 | 50.06698 | 6.94227 | 36060 ft | 460 kts | 134° |
| 2026-04-22 18:17 | 50.04378 | 6.97624 | 36278 ft | 460 kts | 134° |
| 2026-04-22 18:17 | 50.02041 | 7.01042 | 36494 ft | 460 kts | 134° |
| 2026-04-22 18:17 | 49.99708 | 7.04447 | 36723 ft | 460 kts | 134° |
| 2026-04-22 18:18 | 49.97374 | 7.07849 | 36952 ft | 460 kts | 135° |
| 2026-04-22 18:18 | 49.95039 | 7.11248 | 37147 ft | 460 kts | 135° |
| 2026-04-22 18:18 | 49.92700 | 7.14649 | 37300 ft | 462 kts | 135° |
| 2026-04-22 18:19 | 49.88781 | 7.20337 | 37304 ft | 465 kts | 135° |
| 2026-04-22 18:19 | 49.84053 | 7.27178 | 37277 ft | 462 kts | 135° |
| 2026-04-22 18:20 | 49.79380 | 7.33921 | 37309 ft | 458 kts | 135° |
| 2026-04-22 18:20 | 49.74725 | 7.40621 | 37286 ft | 457 kts | 135° |
| 2026-04-22 18:21 | 49.70075 | 7.47296 | 37310 ft | 456 kts | 135° |
| 2026-04-22 18:21 | 49.65426 | 7.53952 | 37290 ft | 456 kts | 135° |
| 2026-04-22 18:22 | 49.60771 | 7.60597 | 37280 ft | 457 kts | 135° |
| 2026-04-22 18:22 | 49.56105 | 7.67241 | 37269 ft | 458 kts | 135° |
| 2026-04-22 18:23 | 49.51401 | 7.73920 | 37272 ft | 460 kts | 135° |
| 2026-04-22 18:23 | 49.46723 | 7.80543 | 37275 ft | 461 kts | 135° |
| 2026-04-22 18:24 | 49.39615 | 7.90574 | 37278 ft | 463 kts | 135° |
| 2026-04-22 18:25 | 49.32474 | 8.00608 | 37278 ft | 465 kts | 135° |
| 2026-04-22 18:25 | 49.27670 | 8.07336 | 37282 ft | 465 kts | 135° |
| 2026-04-22 18:26 | 49.20491 | 8.17340 | 37275 ft | 465 kts | 135° |
| 2026-04-22 18:26 | 49.15741 | 8.23957 | 37275 ft | 465 kts | 135° |
| 2026-04-22 18:27 | 49.10935 | 8.30629 | 37270 ft | 464 kts | 135° |
| 2026-04-22 18:27 | 49.06191 | 8.37191 | 37269 ft | 463 kts | 136° |
| 2026-04-22 18:28 | 49.01416 | 8.43778 | 37269 ft | 463 kts | 136° |
| 2026-04-22 18:28 | 48.96645 | 8.50343 | 37274 ft | 462 kts | 136° |
| 2026-04-22 18:29 | 48.91856 | 8.56914 | 37265 ft | 462 kts | 136° |
| 2026-04-22 18:29 | 48.87081 | 8.63449 | 37271 ft | 462 kts | 136° |
| 2026-04-22 18:30 | 48.79904 | 8.73239 | 37269 ft | 463 kts | 136° |
| 2026-04-22 18:31 | 48.75106 | 8.79761 | 37267 ft | 463 kts | 136° |
| 2026-04-22 18:31 | 48.70297 | 8.86280 | 37267 ft | 464 kts | 136° |
| 2026-04-22 18:32 | 48.65479 | 8.92778 | 37267 ft | 464 kts | 136° |
| 2026-04-22 18:32 | 48.60649 | 8.99272 | 37268 ft | 464 kts | 136° |
| 2026-04-22 18:33 | 48.55830 | 9.05760 | 37265 ft | 465 kts | 136° |
| 2026-04-22 18:33 | 48.51001 | 9.12244 | 37266 ft | 465 kts | 136° |
| 2026-04-22 18:34 | 48.46160 | 9.18723 | 37270 ft | 465 kts | 136° |
| 2026-04-22 18:34 | 48.41316 | 9.25188 | 37267 ft | 466 kts | 136° |
| 2026-04-22 18:35 | 48.36462 | 9.31656 | 37262 ft | 466 kts | 136° |
| 2026-04-22 18:35 | 48.31603 | 9.38113 | 37266 ft | 466 kts | 136° |
| 2026-04-22 18:36 | 48.26739 | 9.44552 | 37267 ft | 466 kts | 137° |
| 2026-04-22 18:36 | 48.21812 | 9.50885 | 37261 ft | 467 kts | 139° |
| 2026-04-22 18:37 | 48.16799 | 9.56978 | 37269 ft | 467 kts | 139° |
| 2026-04-22 18:37 | 48.11717 | 9.63139 | 37265 ft | 467 kts | 139° |
| 2026-04-22 18:38 | 48.06931 | 9.68977 | 37266 ft | 467 kts | 139° |
| 2026-04-22 18:38 | 48.02256 | 9.74690 | 37262 ft | 467 kts | 139° |
| 2026-04-22 18:39 | 47.94706 | 9.83889 | 37256 ft | 467 kts | 139° |
| 2026-04-22 18:39 | 47.89665 | 9.90006 | 37251 ft | 467 kts | 139° |
| 2026-04-22 18:40 | 47.84617 | 9.96119 | 37249 ft | 467 kts | 139° |
| 2026-04-22 18:40 | 47.79571 | 10.02221 | 37252 ft | 468 kts | 139° |
| 2026-04-22 18:41 | 47.74508 | 10.08316 | 37247 ft | 468 kts | 140° |
| 2026-04-22 18:41 | 47.69445 | 10.14392 | 37257 ft | 468 kts | 140° |
| 2026-04-22 18:42 | 47.64375 | 10.20466 | 37252 ft | 469 kts | 140° |
| 2026-04-22 18:42 | 47.59298 | 10.26539 | 37257 ft | 469 kts | 140° |
| 2026-04-22 18:43 | 47.54152 | 10.32454 | 37257 ft | 469 kts | 144° |
| 2026-04-22 18:43 | 47.48683 | 10.37766 | 37248 ft | 470 kts | 146° |
| 2026-04-22 18:44 | 47.43185 | 10.42986 | 37240 ft | 470 kts | 146° |
| 2026-04-22 18:44 | 47.37718 | 10.48259 | 37237 ft | 470 kts | 146° |
| 2026-04-22 18:45 | 47.32264 | 10.53554 | 37232 ft | 468 kts | 146° |
| 2026-04-22 18:45 | 47.26827 | 10.58844 | 37233 ft | 469 kts | 144° |
| 2026-04-22 18:46 | 47.21508 | 10.64403 | 37240 ft | 470 kts | 143° |
| 2026-04-22 18:46 | 47.16199 | 10.70047 | 37236 ft | 471 kts | 143° |
| 2026-04-22 18:47 | 47.10854 | 10.75665 | 37228 ft | 472 kts | 143° |
| 2026-04-22 18:47 | 47.05491 | 10.81256 | 37212 ft | 473 kts | 143° |
| 2026-04-22 18:48 | 47.00116 | 10.86840 | 37215 ft | 473 kts | 144° |
| 2026-04-22 18:48 | 46.94738 | 10.92416 | 37202 ft | 474 kts | 144° |
| 2026-04-22 18:49 | 46.89369 | 10.97973 | 37201 ft | 473 kts | 144° |
| 2026-04-22 18:49 | 46.83997 | 11.03519 | 37199 ft | 471 kts | 144° |
| 2026-04-22 18:50 | 46.79020 | 11.09635 | 37215 ft | 464 kts | 132° |
| 2026-04-22 18:50 | 46.74656 | 11.16512 | 37182 ft | 466 kts | 131° |
| 2026-04-22 18:51 | 46.70262 | 11.23470 | 37150 ft | 467 kts | 131° |
| 2026-04-22 18:51 | 46.65824 | 11.30391 | 37126 ft | 468 kts | 132° |
| 2026-04-22 18:52 | 46.61356 | 11.37294 | 37125 ft | 469 kts | 132° |
| 2026-04-22 18:52 | 46.56872 | 11.44200 | 37115 ft | 470 kts | 132° |
| 2026-04-22 18:53 | 46.52379 | 11.51111 | 37126 ft | 470 kts | 132° |
| 2026-04-22 18:53 | 46.47878 | 11.58019 | 37129 ft | 471 kts | 132° |
| 2026-04-22 18:54 | 46.43365 | 11.64928 | 37148 ft | 472 kts | 132° |
| 2026-04-22 18:54 | 46.38833 | 11.71835 | 37165 ft | 473 kts | 133° |
| 2026-04-22 18:55 | 46.34108 | 11.78471 | 37177 ft | 474 kts | 136° |
| 2026-04-22 18:55 | 46.29273 | 11.84960 | 37193 ft | 474 kts | 136° |
| 2026-04-22 18:56 | 46.24449 | 11.91455 | 37184 ft | 474 kts | 136° |
| 2026-04-22 18:56 | 46.19646 | 11.97963 | 37214 ft | 474 kts | 135° |
| 2026-04-22 18:57 | 46.14842 | 12.04480 | 37216 ft | 475 kts | 135° |
| 2026-04-22 18:57 | 46.10017 | 12.11008 | 37216 ft | 476 kts | 136° |
| 2026-04-22 18:58 | 46.05181 | 12.17542 | 37208 ft | 477 kts | 135° |
| 2026-04-22 18:58 | 46.00323 | 12.24088 | 37188 ft | 479 kts | 135° |
| 2026-04-22 18:59 | 45.95461 | 12.30613 | 37173 ft | 479 kts | 136° |
| 2026-04-22 18:59 | 45.90582 | 12.37139 | 37188 ft | 479 kts | 136° |
| 2026-04-22 19:00 | 45.85698 | 12.43656 | 37179 ft | 479 kts | 136° |
| 2026-04-22 19:00 | 45.80822 | 12.50156 | 37181 ft | 479 kts | 136° |
| 2026-04-22 19:01 | 45.78370 | 12.53418 | 36843 ft | 481 kts | 136° |
| 2026-04-22 19:01 | 45.75930 | 12.56660 | 36513 ft | 475 kts | 136° |
| 2026-04-22 19:01 | 45.73515 | 12.59865 | 36131 ft | 471 kts | 136° |
| 2026-04-22 19:01 | 45.71121 | 12.63037 | 35736 ft | 468 kts | 136° |
| 2026-04-22 19:02 | 45.68744 | 12.66184 | 35338 ft | 464 kts | 136° |
| 2026-04-22 19:02 | 45.66379 | 12.69311 | 34940 ft | 461 kts | 136° |
| 2026-04-22 19:02 | 45.64025 | 12.72417 | 34539 ft | 459 kts | 136° |
| 2026-04-22 19:02 | 45.61738 | 12.75572 | 34114 ft | 456 kts | 131° |
| 2026-04-22 19:03 | 45.59610 | 12.78917 | 33655 ft | 453 kts | 129° |
| 2026-04-22 19:03 | 45.57541 | 12.82286 | 33242 ft | 450 kts | 129° |
| 2026-04-22 19:03 | 45.55498 | 12.85643 | 32844 ft | 446 kts | 129° |
| 2026-04-22 19:03 | 45.53466 | 12.88970 | 32455 ft | 443 kts | 129° |
| 2026-04-22 19:04 | 45.52127 | 12.91148 | 32206 ft | 441 kts | 129° |
| 2026-04-22 19:04 | 45.50105 | 12.94419 | 31834 ft | 438 kts | 129° |
| 2026-04-22 19:04 | 45.48091 | 12.97659 | 31460 ft | 435 kts | 129° |
| 2026-04-22 19:04 | 45.46087 | 13.00877 | 31094 ft | 433 kts | 129° |
| 2026-04-22 19:05 | 45.44095 | 13.04068 | 30734 ft | 430 kts | 129° |
| 2026-04-22 19:05 | 45.41467 | 13.08271 | 30253 ft | 427 kts | 129° |
| 2026-04-22 19:05 | 45.40134 | 13.10401 | 29970 ft | 426 kts | 129° |
| 2026-04-22 19:05 | 45.37537 | 13.14546 | 29429 ft | 421 kts | 129° |
| 2026-04-22 19:06 | 45.36223 | 13.16640 | 29197 ft | 418 kts | 129° |
| 2026-04-22 19:06 | 45.34296 | 13.19712 | 28815 ft | 415 kts | 129° |
| 2026-04-22 19:06 | 45.32384 | 13.22754 | 28445 ft | 411 kts | 129° |
| 2026-04-22 19:07 | 45.28620 | 13.28770 | 27736 ft | 404 kts | 129° |
| 2026-04-22 19:07 | 45.26772 | 13.31756 | 27380 ft | 400 kts | 128° |
| 2026-04-22 19:07 | 45.24967 | 13.34674 | 27026 ft | 397 kts | 128° |
| 2026-04-22 19:07 | 45.23151 | 13.37608 | 26675 ft | 394 kts | 128° |
| 2026-04-22 19:08 | 45.21347 | 13.40517 | 26316 ft | 391 kts | 128° |
| 2026-04-22 19:08 | 45.19555 | 13.43402 | 25986 ft | 388 kts | 128° |
| 2026-04-22 19:08 | 45.17776 | 13.46263 | 25652 ft | 385 kts | 128° |
| 2026-04-22 19:10 | 45.14516 | 13.51494 | 25027 ft | 380 kts | 128° |
| 2026-04-22 19:10 | 45.12761 | 13.54307 | 24691 ft | 378 kts | 128° |
| 2026-04-22 19:10 | 45.11029 | 13.57080 | 24358 ft | 375 kts | 128° |
| 2026-04-22 19:11 | 45.09302 | 13.59840 | 24017 ft | 373 kts | 128° |
| 2026-04-22 19:11 | 45.07588 | 13.62579 | 23683 ft | 371 kts | 128° |
| 2026-04-22 19:11 | 45.05881 | 13.65305 | 23292 ft | 368 kts | 128° |
| 2026-04-22 19:11 | 45.04190 | 13.68001 | 22953 ft | 365 kts | 128° |
| 2026-04-22 19:12 | 45.02514 | 13.70670 | 22611 ft | 361 kts | 128° |
| 2026-04-22 19:12 | 45.00876 | 13.73277 | 22297 ft | 358 kts | 128° |
| 2026-04-22 19:12 | 44.99205 | 13.75934 | 21950 ft | 355 kts | 128° |
| 2026-04-22 19:12 | 44.97569 | 13.78534 | 21625 ft | 353 kts | 128° |
| 2026-04-22 19:13 | 44.95968 | 13.81075 | 21306 ft | 350 kts | 128° |
| 2026-04-22 19:13 | 44.94356 | 13.83632 | 20977 ft | 348 kts | 128° |
| 2026-04-22 19:13 | 44.92754 | 13.86174 | 20645 ft | 345 kts | 128° |
| 2026-04-22 19:13 | 44.91161 | 13.88695 | 20333 ft | 343 kts | 128° |
| 2026-04-22 19:14 | 44.89578 | 13.91197 | 20015 ft | 341 kts | 128° |
| 2026-04-22 19:14 | 44.87995 | 13.93671 | 19719 ft | 338 kts | 129° |
| 2026-04-22 19:14 | 44.86406 | 13.96110 | 19409 ft | 336 kts | 129° |
| 2026-04-22 19:14 | 44.84822 | 13.98528 | 19088 ft | 335 kts | 129° |
| 2026-04-22 19:15 | 44.83759 | 14.00150 | 18872 ft | 334 kts | 129° |
| 2026-04-22 19:15 | 44.81677 | 14.03326 | 18454 ft | 332 kts | 129° |
| 2026-04-22 19:15 | 44.80115 | 14.05709 | 18095 ft | 330 kts | 129° |
| 2026-04-22 19:15 | 44.78559 | 14.08083 | 17760 ft | 329 kts | 129° |
| 2026-04-22 19:16 | 44.77017 | 14.10435 | 17431 ft | 326 kts | 129° |
| 2026-04-22 19:16 | 44.75483 | 14.12773 | 17119 ft | 324 kts | 129° |
| 2026-04-22 19:16 | 44.73958 | 14.15095 | 16807 ft | 322 kts | 129° |
| 2026-04-22 19:16 | 44.72445 | 14.17399 | 16491 ft | 319 kts | 129° |
| 2026-04-22 19:17 | 44.70944 | 14.19683 | 16182 ft | 317 kts | 129° |
| 2026-04-22 19:17 | 44.69449 | 14.21955 | 15869 ft | 315 kts | 128° |
| 2026-04-22 19:17 | 44.67963 | 14.24213 | 15571 ft | 314 kts | 129° |
| 2026-04-22 19:17 | 44.66487 | 14.26453 | 15264 ft | 312 kts | 129° |
| 2026-04-22 19:18 | 44.65016 | 14.28684 | 14957 ft | 310 kts | 128° |
| 2026-04-22 19:18 | 44.63554 | 14.30900 | 14656 ft | 309 kts | 129° |
| 2026-04-22 19:18 | 44.62096 | 14.33107 | 14359 ft | 308 kts | 129° |
| 2026-04-22 19:18 | 44.60646 | 14.35302 | 14051 ft | 307 kts | 129° |
| 2026-04-22 19:19 | 44.59197 | 14.37493 | 13723 ft | 305 kts | 128° |
| 2026-04-22 19:19 | 44.57755 | 14.39673 | 13386 ft | 304 kts | 129° |
| 2026-04-22 19:19 | 44.56317 | 14.41844 | 13072 ft | 303 kts | 129° |
| 2026-04-22 19:19 | 44.54889 | 14.43997 | 12779 ft | 301 kts | 129° |
| 2026-04-22 19:20 | 44.53468 | 14.46137 | 12466 ft | 299 kts | 128° |
| 2026-04-22 19:20 | 44.52257 | 14.48450 | 12188 ft | 290 kts | 111° |
| 2026-04-22 19:20 | 44.51436 | 14.51001 | 11941 ft | 287 kts | 109° |
| 2026-04-22 19:20 | 44.50648 | 14.53570 | 11628 ft | 286 kts | 108° |
| 2026-04-22 19:21 | 44.49869 | 14.56115 | 11337 ft | 284 kts | 109° |
| 2026-04-22 19:21 | 44.49087 | 14.58649 | 11039 ft | 283 kts | 109° |
| 2026-04-22 19:21 | 44.48313 | 14.61136 | 10746 ft | 281 kts | 109° |
| 2026-04-22 19:21 | 44.47531 | 14.63635 | 10458 ft | 280 kts | 109° |
| 2026-04-22 19:22 | 44.46752 | 14.66113 | 10262 ft | 275 kts | 109° |
| 2026-04-22 19:22 | 44.45987 | 14.68535 | 9989 ft | 273 kts | 109° |
| 2026-04-22 19:22 | 44.45217 | 14.70972 | 9621 ft | 274 kts | 110° |
| 2026-04-22 19:22 | 44.44448 | 14.73402 | 9308 ft | 272 kts | 109° |
| 2026-04-22 19:23 | 44.43679 | 14.75824 | 9002 ft | 271 kts | 110° |
| 2026-04-22 19:23 | 44.42916 | 14.78227 | 8706 ft | 269 kts | 110° |
| 2026-04-22 19:23 | 44.42157 | 14.80612 | 8411 ft | 268 kts | 109° |
| 2026-04-22 19:23 | 44.41404 | 14.82978 | 8133 ft | 266 kts | 109° |
| 2026-04-22 19:24 | 44.40653 | 14.85335 | 7851 ft | 264 kts | 109° |
| 2026-04-22 19:24 | 44.39907 | 14.87675 | 7570 ft | 263 kts | 109° |
| 2026-04-22 19:24 | 44.39164 | 14.90004 | 7290 ft | 261 kts | 109° |
| 2026-04-22 19:24 | 44.38425 | 14.92320 | 7011 ft | 260 kts | 109° |
| 2026-04-22 19:25 | 44.37691 | 14.94615 | 6737 ft | 258 kts | 108° |
| 2026-04-22 19:25 | 44.36960 | 14.96897 | 6460 ft | 256 kts | 108° |
| 2026-04-22 19:25 | 44.36232 | 14.99165 | 6167 ft | 255 kts | 108° |
| 2026-04-22 19:25 | 44.35364 | 15.01333 | 5860 ft | 260 kts | 122° |
| 2026-04-22 19:26 | 44.34119 | 15.03190 | 5587 ft | 262 kts | 129° |
| 2026-04-22 19:26 | 44.32796 | 15.04933 | 5306 ft | 261 kts | 130° |
| 2026-04-22 19:26 | 44.31482 | 15.06669 | 5028 ft | 260 kts | 129° |
| 2026-04-22 19:26 | 44.30179 | 15.08417 | 4739 ft | 260 kts | 129° |
| 2026-04-22 19:27 | 44.28878 | 15.10179 | 4424 ft | 260 kts | 129° |
| 2026-04-22 19:27 | 44.27599 | 15.11912 | 4149 ft | 259 kts | 130° |
| 2026-04-22 19:27 | 44.26312 | 15.13656 | 3883 ft | 257 kts | 130° |
| 2026-04-22 19:27 | 44.25058 | 15.15352 | 3577 ft | 245 kts | 130° |
| 2026-04-22 19:28 | 44.23861 | 15.16972 | 3310 ft | 235 kts | 130° |
| 2026-04-22 19:28 | 44.22714 | 15.18525 | 3081 ft | 223 kts | 130° |
| 2026-04-22 19:28 | 44.21635 | 15.19991 | 2823 ft | 212 kts | 130° |
| 2026-04-22 19:28 | 44.20604 | 15.21392 | 2594 ft | 202 kts | 130° |
| 2026-04-22 19:29 | 44.19626 | 15.22719 | 2394 ft | 190 kts | 130° |
| 2026-04-22 19:29 | 44.18708 | 15.23963 | 2222 ft | 179 kts | 130° |
| 2026-04-22 19:29 | 44.17833 | 15.25159 | 2012 ft | 175 kts | 131° |
| 2026-04-22 19:29 | 44.16965 | 15.26330 | 1768 ft | 171 kts | 130° |
| 2026-04-22 19:30 | 44.16421 | 15.27099 | 1605 ft | 165 kts | 132° |
| 2026-04-22 19:30 | 44.15365 | 15.28506 | 1315 ft | 152 kts | 131° |
| 2026-04-22 19:30 | 44.14614 | 15.29525 | 1103 ft | 150 kts | 132° |
| 2026-04-22 19:30 | 44.13871 | 15.30537 | 913 ft | 148 kts | 132° |
| 2026-04-22 19:31 | 44.13139 | 15.31542 | 711 ft | 147 kts | 133° |
| 2026-04-22 19:31 | 44.12405 | 15.32527 | 475 ft | 146 kts | 133° |
| 2026-04-22 19:31 | 44.11684 | 15.33508 | 297 ft | 144 kts | 132° |
| 2026-04-22 19:31 | 44.11015 | 15.34421 | 256 ft | 116 kts | 135° |
| 2026-04-22 19:32 | 44.10543 | 15.35059 | 261 ft | 72 kts | 135° |
| 2026-04-22 19:32 | 44.10282 | 15.35414 | 263 ft | 38 kts | 135° |
| 2026-04-22 19:32 | 44.10150 | 15.35595 | 266 ft | 23 kts | 135° |
| 2026-04-22 19:32 | 44.10074 | 15.35699 | 267 ft | 10 kts | 135° |
| 2026-04-22 19:33 | 44.10011 | 15.35696 | 267 ft | 10 kts | 222° |
| 2026-04-22 19:33 | 44.09963 | 15.35623 | 266 ft | 10 kts | 224° |
| 2026-04-22 19:33 | 44.09914 | 15.35555 | 267 ft | 10 kts | 226° |
| 2026-04-22 19:33 | 44.09853 | 15.35527 | 268 ft | 10 kts | 179° |
| 2026-04-22 19:34 | 44.09788 | 15.35534 | 269 ft | 9 kts | 178° |
| 2026-04-22 19:34 | 44.09725 | 15.35535 | 270 ft | 9 kts | 181° |
| 2026-04-22 19:34 | 44.09663 | 15.35538 | 272 ft | 9 kts | 177° |
| 2026-04-22 19:34 | 44.09637 | 15.35481 | 273 ft | 9 kts | 271° |
| 2026-04-22 19:35 | 44.09637 | 15.35442 | 273 ft | 0 kts | 271° |